Time;durP1;ratioP1;P1;durP2;ratioP2;P2;SDS_P1;SDS_P2;PMS_P1;PMS_P2;Temp;Humidity;BMP_temperature;BMP_pressure;BME280_temperature;BME280_humidity;BME280_pressure;Samples;Min_cycle;Max_cycle;Signal;HPM_P1;HPM_P2
2023/04/08 00:00:39;;;;;;;20.27;17.73;;;;;;;7.59;100.00;102170.63;5007171;28;20276;-66
2023/04/08 00:03:05;;;;;;;23.17;18.35;;;;;;;7.61;100.00;102165.84;5007815;28;20076;-66
2023/04/08 00:05:30;;;;;;;22.30;19.25;;;;;;;7.62;100.00;102166.69;5006886;28;20033;-66
2023/04/08 00:07:55;;;;;;;21.42;18.85;;;;;;;7.63;100.00;102169.22;5006580;28;20088;-66
2023/04/08 00:10:21;;;;;;;21.10;18.45;;;;;;;7.66;100.00;102168.03;5005092;28;20051;-65
2023/04/08 00:12:47;;;;;;;21.80;18.90;;;;;;;7.66;100.00;102171.63;5007438;28;20040;-66
2023/04/08 00:15:12;;;;;;;21.27;18.98;;;;;;;7.66;100.00;102168.88;5006977;28;20025;-66
2023/04/08 00:17:38;;;;;;;21.80;19.50;;;;;;;7.67;100.00;102170.59;5007238;28;20034;-66
2023/04/08 00:20:04;;;;;;;20.83;18.55;;;;;;;7.69;100.00;102173.13;5007202;28;20579;-66
2023/04/08 00:22:30;;;;;;;21.27;18.77;;;;;;;7.71;100.00;102165.63;5006328;28;20153;-64
2023/04/08 00:24:56;;;;;;;22.20;18.58;;;;;;;7.71;100.00;102169.19;5004885;28;20724;-66
2023/04/08 00:27:24;;;;;;;21.00;18.85;;;;;;;7.73;100.00;102169.00;5005603;28;20026;-66
2023/04/08 00:29:49;;;;;;;22.02;19.42;;;;;;;7.73;100.00;102167.13;5006373;28;20034;-66
2023/04/08 00:32:14;;;;;;;22.58;20.15;;;;;;;7.76;100.00;102171.41;4987882;28;20033;-66
2023/04/08 00:34:40;;;;;;;21.77;19.45;;;;;;;7.74;100.00;102182.50;5007246;28;20034;-66
2023/04/08 00:37:05;;;;;;;24.10;19.30;;;;;;;7.74;100.00;102174.28;5006952;28;20400;-66
2023/04/08 00:39:30;;;;;;;22.10;19.10;;;;;;;7.76;100.00;102176.88;5004700;28;20022;-66
2023/04/08 00:41:56;;;;;;;22.08;19.58;;;;;;;7.73;100.00;102167.13;5006033;28;20033;-66
2023/04/08 00:44:21;;;;;;;23.67;20.42;;;;;;;7.73;100.00;102178.06;5006149;28;20117;-66
2023/04/08 00:46:47;;;;;;;21.50;18.92;;;;;;;7.72;100.00;102162.69;5006041;28;20026;-66
2023/04/08 00:49:12;;;;;;;22.17;19.80;;;;;;;7.73;100.00;102177.22;5005698;28;20037;-66
2023/04/08 00:51:38;;;;;;;23.17;20.17;;;;;;;7.72;100.00;102178.25;5007635;28;20037;-65
2023/04/08 00:54:04;;;;;;;22.23;19.67;;;;;;;7.73;100.00;102179.94;5006115;28;20073;-64
2023/04/08 00:56:31;;;;;;;23.30;20.45;;;;;;;7.73;100.00;102179.94;5007251;28;20040;-66
2023/04/08 00:58:58;;;;;;;24.40;20.37;;;;;;;7.73;100.00;102174.47;5006089;28;20159;-66
2023/04/08 01:01:33;;;;;;;22.15;19.85;;;;;;;7.73;100.00;102174.47;5007308;28;20026;-66
2023/04/08 01:04:32;;;;;;;23.20;20.80;;;;;;;7.73;100.00;102178.06;5006710;28;20022;-66
2023/04/08 01:07:11;;;;;;;23.65;21.10;;;;;;;7.72;100.00;102178.25;5004840;28;20503;-66
2023/04/08 01:09:38;;;;;;;22.48;20.08;;;;;;;7.71;100.00;102185.59;5005041;28;20133;-65
2023/04/08 01:12:07;;;;;;;23.42;20.95;;;;;;;7.70;100.00;102185.75;5007306;28;20026;-66
2023/04/08 01:14:37;;;;;;;24.38;21.88;;;;;;;7.71;100.00;102182.03;5006428;28;20839;-66
2023/04/08 01:17:04;;;;;;;24.25;21.35;;;;;;;7.71;100.00;102182.03;5003567;28;20366;-67
2023/04/08 01:19:37;;;;;;;24.00;21.63;;;;;;;7.69;100.00;102179.44;5004115;28;20435;-66
2023/04/08 01:22:11;;;;;;;24.17;21.67;;;;;;;7.68;100.00;102183.22;5007179;28;20026;-66
2023/04/08 01:24:41;;;;;;;24.20;21.63;;;;;;;7.69;100.00;102184.06;5005407;28;20034;-67
2023/04/08 01:27:09;;;;;;;24.65;21.98;;;;;;;7.68;100.00;102188.69;5006326;28;20029;-67
2023/04/08 01:29:36;;;;;;;24.27;21.67;;;;;;;7.68;100.00;102185.09;5006254;28;20074;-66
2023/04/08 01:32:02;;;;;;;24.77;22.20;;;;;;;7.67;100.00;102187.00;5005965;28;20105;-66
2023/04/08 01:34:29;;;;;;;25.23;21.70;;;;;;;7.68;100.00;102185.94;5006837;28;20018;-66
2023/04/08 01:36:56;;;;;;;26.13;23.17;;;;;;;7.67;100.00;102184.25;5006687;28;20037;-67
2023/04/08 01:39:22;;;;;;;26.02;22.92;;;;;;;7.67;100.00;102197.94;5004437;28;20091;-66
2023/04/08 01:41:49;;;;;;;27.30;22.13;;;;;;;7.69;100.00;102186.81;5005941;28;20041;-67
2023/04/08 01:44:16;;;;;;;25.55;22.77;;;;;;;7.69;100.00;102200.47;5006189;28;20034;-66
2023/04/08 01:46:42;;;;;;;26.98;22.80;;;;;;;7.70;100.00;102197.56;5005513;28;20044;-66
2023/04/08 01:49:08;;;;;;;28.38;23.13;;;;;;;7.71;100.00;102201.16;5005927;28;20034;-64
2023/04/08 01:51:35;;;;;;;24.85;22.23;;;;;;;7.71;100.00;102199.28;5005884;28;20065;-67
2023/04/08 01:54:00;;;;;;;28.20;22.98;;;;;;;7.70;100.00;102191.22;5008335;28;20444;-64
2023/04/08 01:56:28;;;;;;;26.98;23.92;;;;;;;7.70;100.00;102199.44;5008820;28;20164;-67
2023/04/08 01:58:57;;;;;;;29.27;23.63;;;;;;;7.71;100.00;102203.91;5009313;28;20030;-67
2023/04/08 02:01:25;;;;;;;26.98;23.45;;;;;;;7.71;100.00;102199.28;5009017;28;21081;-67
2023/04/08 02:03:55;;;;;;;29.08;24.50;;;;;;;7.70;100.00;102203.03;5009817;28;20026;-66
2023/04/08 02:06:20;;;;;;;29.08;23.65;;;;;;;7.72;100.00;102197.41;5009278;28;20381;-66
2023/04/08 02:08:45;;;;;;;27.38;24.45;;;;;;;7.71;100.00;102202.00;4992534;28;20030;-66
2023/04/08 02:11:11;;;;;;;31.73;22.98;;;;;;;7.71;100.00;102199.28;5009373;28;20032;-66
2023/04/08 02:13:36;;;;;;;29.92;24.20;;;;;;;7.72;100.00;102200.13;5009091;28;20034;-67
2023/04/08 02:16:30;;;;;;;29.55;23.60;;;;;;;7.75;100.00;102203.34;5009950;28;20025;-67
2023/04/08 02:18:59;;;;;;;29.83;23.30;;;;;;;7.73;100.00;102205.41;5008390;28;20061;-66
2023/04/08 02:21:37;;;;;;;28.52;22.70;;;;;;;7.75;100.00;102205.22;5008842;28;20033;-64
2023/04/08 02:24:06;;;;;;;33.33;24.33;;;;;;;7.72;100.00;102202.88;5008535;28;20032;-66
2023/04/08 02:26:35;;;;;;;27.23;23.35;;;;;;;7.71;100.00;102203.91;5008734;28;20195;-67
2023/04/08 02:29:04;;;;;;;27.48;24.58;;;;;;;7.69;100.00;102206.78;5008401;28;20030;-67
2023/04/08 02:31:29;;;;;;;28.90;23.45;;;;;;;7.70;100.00;102202.16;5008759;28;20096;-66
2023/04/08 02:33:56;;;;;;;28.02;24.42;;;;;;;7.69;100.00;102208.69;5009184;28;20430;-66
2023/04/08 02:36:22;;;;;;;26.58;23.77;;;;;;;7.70;100.00;102211.22;5008734;28;20712;-66
2023/04/08 02:38:50;;;;;;;29.20;24.00;;;;;;;7.68;100.00;102205.09;5008019;28;20128;-64
2023/04/08 02:41:15;;;;;;;28.75;24.17;;;;;;;7.67;100.00;102213.50;5007514;28;20111;-66
2023/04/08 02:43:41;;;;;;;29.90;23.25;;;;;;;7.66;100.00;102214.53;5008623;28;20037;-67
2023/04/08 02:46:07;;;;;;;23.80;21.30;;;;;;;7.64;100.00;102211.94;5007866;28;20062;-64
2023/04/08 02:48:33;;;;;;;27.63;24.15;;;;;;;7.62;100.00;102215.91;5005862;28;20034;-64
2023/04/08 02:50:58;;;;;;;26.90;22.83;;;;;;;7.61;100.00;102216.94;5008109;28;20061;-66
2023/04/08 02:53:24;;;;;;;29.13;23.88;;;;;;;7.57;100.00;102212.84;5008113;28;20029;-65
2023/04/08 02:55:49;;;;;;;24.80;22.13;;;;;;;7.54;100.00;102214.88;5007740;28;20025;-67
2023/04/08 02:58:15;;;;;;;26.48;22.08;;;;;;;7.49;100.00;102217.31;5008193;28;20361;-67
2023/04/08 03:00:40;;;;;;;26.67;22.88;;;;;;;7.46;100.00;102216.81;5009070;28;20464;-64
2023/04/08 03:03:06;;;;;;;24.92;22.33;;;;;;;7.43;100.00;102222.63;5007838;28;20113;-65
2023/04/08 03:05:31;;;;;;;28.55;22.77;;;;;;;7.40;100.00;102223.84;5006981;28;20069;-65
2023/04/08 03:07:57;;;;;;;27.63;23.08;;;;;;;7.38;100.00;102222.31;5008022;28;20407;-64
2023/04/08 03:10:22;;;;;;;25.35;22.13;;;;;;;7.35;100.00;102226.25;5006688;28;20138;-66
2023/04/08 03:12:47;;;;;;;30.65;23.55;;;;;;;7.33;100.00;102225.56;5008022;28;20030;-67
2023/04/08 03:15:13;;;;;;;24.58;21.92;;;;;;;7.29;100.00;102219.59;5007620;28;20040;-67
2023/04/08 03:17:38;;;;;;;28.90;24.10;;;;;;;7.24;100.00;102216.53;5007667;28;20034;-67
2023/04/08 03:20:04;;;;;;;26.45;22.73;;;;;;;7.18;100.00;102213.66;5008409;28;20057;-66
2023/04/08 03:22:30;;;;;;;26.88;23.02;;;;;;;7.10;100.00;102220.00;5007082;28;20076;-66
2023/04/08 03:24:55;;;;;;;27.55;22.13;;;;;;;7.03;100.00;102211.63;5005732;28;20069;-64
2023/04/08 03:27:21;;;;;;;25.85;21.33;;;;;;;6.98;100.00;102213.19;5007612;28;20026;-66
2023/04/08 03:29:46;;;;;;;22.17;19.75;;;;;;;6.91;100.00;102214.91;5006904;28;20108;-67
2023/04/08 03:32:11;;;;;;;27.30;21.90;;;;;;;6.87;100.00;102217.13;5006766;28;20112;-66
2023/04/08 03:34:37;;;;;;;209.57;24.23;;;;;;;6.85;100.00;102212.88;5008728;28;20057;-67
2023/04/08 03:37:02;;;;;;;112.63;21.67;;;;;;;6.76;100.00;102215.63;5007294;28;20187;-66
2023/04/08 03:39:27;;;;;;;21.17;18.08;;;;;;;6.75;100.00;102219.38;4978147;28;20078;-67
2023/04/08 03:41:53;;;;;;;24.20;17.45;;;;;;;6.68;100.00;102218.34;5001670;28;20115;-66
2023/04/08 03:44:18;;;;;;;23.17;18.63;;;;;;;6.67;100.00;102219.38;5006513;28;20037;-64
2023/04/08 03:46:43;;;;;;;26.20;19.70;;;;;;;6.66;100.00;102225.84;5006175;28;20112;-66
2023/04/08 03:49:08;;;;;;;72.35;21.55;;;;;;;6.65;100.00;102228.78;5006099;28;20033;-66
2023/04/08 03:51:34;;;;;;;77.90;21.05;;;;;;;6.64;100.00;102227.03;5006458;28;20044;-65
2023/04/08 03:53:59;;;;;;;71.57;21.02;;;;;;;6.67;100.00;102232.16;5005257;28;20026;-66
2023/04/08 03:56:24;;;;;;;91.82;22.48;;;;;;;6.66;100.00;102242.25;5005518;28;20117;-66
2023/04/08 03:58:50;;;;;;;48.05;20.98;;;;;;;6.72;100.00;102230.63;5005903;28;20088;-66
2023/04/08 04:01:15;;;;;;;51.35;22.77;;;;;;;6.76;100.00;102231.16;5005229;28;20053;-67
2023/04/08 04:03:40;;;;;;;32.50;23.15;;;;;;;6.82;100.00;102240.53;5006281;28;20128;-66
2023/04/08 04:06:06;;;;;;;36.85;23.10;;;;;;;6.85;100.00;102240.19;5006631;28;20033;-67
2023/04/08 04:08:31;;;;;;;81.15;24.48;;;;;;;6.87;100.00;102238.13;5004108;28;20038;-67
2023/04/08 04:10:58;;;;;;;77.78;24.73;;;;;;;6.87;100.00;102243.59;5004292;28;20134;-65
2023/04/08 04:13:23;;;;;;;35.35;23.48;;;;;;;6.89;100.00;102242.38;5004682;28;20075;-66
2023/04/08 04:15:48;;;;;;;36.55;24.30;;;;;;;6.92;100.00;102231.13;5002861;28;20100;-67
2023/04/08 04:18:14;;;;;;;37.17;23.13;;;;;;;6.95;100.00;102235.41;5004318;28;20393;-66
2023/04/08 04:20:41;;;;;;;67.47;26.65;;;;;;;6.96;100.00;102246.16;4988811;28;20048;-66
2023/04/08 04:23:06;;;;;;;59.72;25.60;;;;;;;6.97;100.00;102249.72;5004358;28;20029;-66
2023/04/08 04:25:31;;;;;;;110.80;27.60;;;;;;;6.98;100.00;102245.97;5005723;28;20034;-66
2023/04/08 04:27:57;;;;;;;176.90;30.67;;;;;;;6.97;100.00;102260.66;5005711;28;20044;-66
2023/04/08 04:30:22;;;;;;;126.50;27.88;;;;;;;6.97;100.00;102264.22;5002726;28;20026;-66
2023/04/08 04:32:48;;;;;;;72.57;25.85;;;;;;;6.96;100.00;102264.41;5005542;28;20037;-67
2023/04/08 04:35:13;;;;;;;117.07;28.00;;;;;;;6.94;100.00;102255.53;5005939;28;20042;-66
2023/04/08 04:37:38;;;;;;;67.07;26.73;;;;;;;6.95;100.00;102268.19;5000277;28;20022;-66
2023/04/08 04:40:04;;;;;;;77.05;26.92;;;;;;;6.94;100.00;102271.91;5004163;28;20083;-66
2023/04/08 04:42:30;;;;;;;55.78;25.17;;;;;;;6.93;100.00;102273.78;5005650;28;20038;-66
2023/04/08 04:44:56;;;;;;;47.70;25.40;;;;;;;6.95;100.00;102276.38;5006200;28;20033;-66
2023/04/08 04:47:21;;;;;;;70.47;24.48;;;;;;;6.91;100.00;102277.72;5004501;28;20025;-66
2023/04/08 04:49:47;;;;;;;50.60;23.75;;;;;;;6.92;100.00;102277.56;5006109;28;20020;-66
2023/04/08 04:52:12;;;;;;;59.47;24.75;;;;;;;6.93;100.00;102281.13;5004319;28;20038;-65
2023/04/08 04:54:37;;;;;;;78.28;25.35;;;;;;;6.91;100.00;102285.94;5005636;28;20534;-66
2023/04/08 04:57:03;;;;;;;51.60;24.35;;;;;;;6.91;100.00;102285.94;5006333;28;20021;-66
2023/04/08 04:59:28;;;;;;;60.55;23.23;;;;;;;6.91;100.00;102286.78;5005681;28;20034;-66
2023/04/08 05:01:56;;;;;;;50.17;23.75;;;;;;;6.91;100.00;102289.50;5005015;28;20071;-67
2023/04/08 05:04:21;;;;;;;52.38;23.40;;;;;;;6.92;100.00;102298.56;5003767;28;20034;-66
2023/04/08 05:06:47;;;;;;;46.53;24.60;;;;;;;6.91;100.00;102289.50;5005654;28;20027;-66
2023/04/08 05:09:12;;;;;;;84.25;23.85;;;;;;;6.88;100.00;102292.56;5001222;28;20026;-65
2023/04/08 05:11:37;;;;;;;59.40;23.67;;;;;;;6.90;100.00;102292.41;5004472;28;20112;-67
2023/04/08 05:14:02;;;;;;;54.28;23.05;;;;;;;6.89;100.00;102294.28;5006655;28;20022;-66
2023/04/08 05:16:28;;;;;;;51.45;23.42;;;;;;;6.87;100.00;102303.69;5005767;28;20034;-66
2023/04/08 05:18:53;;;;;;;48.90;22.55;;;;;;;6.89;100.00;102301.63;5005042;28;20026;-65
2023/04/08 05:21:18;;;;;;;31.58;20.67;;;;;;;6.88;100.00;102300.75;5003246;28;20535;-64
2023/04/08 05:23:44;;;;;;;29.20;21.23;;;;;;;6.88;100.00;102306.22;5004562;28;20087;-66
2023/04/08 05:26:09;;;;;;;26.42;19.88;;;;;;;6.89;100.00;102301.63;5006695;28;20488;-67
2023/04/08 05:28:35;;;;;;;26.00;21.52;;;;;;;6.90;100.00;102309.66;5007786;28;20106;-65
2023/04/08 05:31:00;;;;;;;23.73;19.98;;;;;;;6.90;100.00;102309.66;5009111;28;20045;-66
2023/04/08 05:33:25;;;;;;;23.08;20.63;;;;;;;6.92;100.00;102310.31;5009121;28;20053;-65
2023/04/08 05:35:52;;;;;;;22.30;19.90;;;;;;;6.94;100.00;102315.59;5009372;28;20101;-66
2023/04/08 05:38:17;;;;;;;23.55;21.08;;;;;;;6.92;100.00;102314.94;5005018;28;20112;-67
2023/04/08 05:40:42;;;;;;;22.48;20.02;;;;;;;6.94;100.00;102315.59;5007094;28;20182;-67
2023/04/08 05:43:08;;;;;;;21.08;18.35;;;;;;;6.93;100.00;102316.63;5008934;28;20155;-66
2023/04/08 05:45:33;;;;;;;23.75;20.33;;;;;;;6.96;100.00;102319.03;5010164;28;20034;-66
2023/04/08 05:47:58;;;;;;;22.40;20.10;;;;;;;6.98;100.00;102319.72;5009160;28;20629;-66
2023/04/08 05:50:23;;;;;;;21.13;18.92;;;;;;;7.01;100.00;102327.56;5008225;28;20038;-66
2023/04/08 05:52:49;;;;;;;22.33;20.02;;;;;;;7.02;100.00;102321.09;5007920;28;20452;-65
2023/04/08 05:55:14;;;;;;;21.95;19.65;;;;;;;6.99;100.00;102325.03;4993977;28;20542;-65
2023/04/08 05:57:40;;;;;;;22.80;19.58;;;;;;;7.03;100.00;102326.38;5008874;28;20396;-65
2023/04/08 06:00:08;;;;;;;22.60;20.27;;;;;;;7.08;100.00;102327.75;5007579;28;20030;-66
2023/04/08 06:02:34;;;;;;;22.87;20.37;;;;;;;7.12;100.00;102329.09;5006308;28;20468;-66
2023/04/08 06:04:59;;;;;;;22.88;20.45;;;;;;;7.14;100.00;102330.63;5009101;28;20288;-67
2023/04/08 06:07:25;;;;;;;24.00;21.17;;;;;;;7.19;100.00;102339.16;5006464;28;20354;-65
2023/04/08 06:09:50;;;;;;;23.30;20.80;;;;;;;7.26;100.00;102334.72;5008535;28;20052;-66
2023/04/08 06:12:15;;;;;;;23.80;21.23;;;;;;;7.28;100.00;102340.88;5009364;28;20488;-67
2023/04/08 06:14:41;;;;;;;24.27;21.77;;;;;;;7.32;100.00;102337.81;5008109;28;20121;-67
2023/04/08 06:17:06;;;;;;;24.67;20.75;;;;;;;7.30;100.00;102340.72;5009654;28;20037;-67
2023/04/08 06:19:32;;;;;;;24.08;21.48;;;;;;;7.32;100.00;102346.00;5009428;28;20084;-65
2023/04/08 06:21:57;;;;;;;23.25;20.75;;;;;;;7.35;100.00;102349.25;5009406;28;20516;-66
2023/04/08 06:24:28;;;;;;;22.20;19.88;;;;;;;7.34;100.00;102350.25;5006991;28;20033;-64
2023/04/08 06:26:54;;;;;;;22.95;20.42;;;;;;;7.39;100.00;102350.59;5008067;28;20373;-66
2023/04/08 06:29:20;;;;;;;22.92;20.33;;;;;;;7.43;100.00;102348.38;5008981;28;20408;-65
2023/04/08 06:31:46;;;;;;;22.20;19.90;;;;;;;7.44;100.00;102355.53;5009930;28;20117;-66
2023/04/08 06:34:11;;;;;;;23.60;21.17;;;;;;;7.50;100.00;102358.47;5008948;28;20124;-66
2023/04/08 06:36:36;;;;;;;22.73;20.30;;;;;;;7.52;100.00;102364.59;5006390;28;20040;-65
2023/04/08 06:39:03;;;;;;;20.83;18.73;;;;;;;7.55;100.00;102371.56;5007616;28;20037;-67
2023/04/08 06:41:28;;;;;;;21.95;19.75;;;;;;;7.58;100.00;102368.50;4989147;28;20069;-64
2023/04/08 06:43:54;;;;;;;23.15;20.75;;;;;;;7.62;100.00;102372.59;4989944;28;20027;-66
2023/04/08 06:46:19;;;;;;;22.45;20.10;;;;;;;7.61;100.00;102379.09;4989488;28;20030;-65
2023/04/08 06:48:45;;;;;;;21.73;19.52;;;;;;;7.56;100.00;102380.66;5005774;28;20030;-67
2023/04/08 06:51:10;;;;;;;21.35;19.23;;;;;;;7.59;100.00;102385.75;5008128;28;20038;-65
2023/04/08 06:53:35;;;;;;;23.27;20.92;;;;;;;7.59;100.00;102375.69;5007878;28;20057;-66
2023/04/08 06:56:00;;;;;;;22.38;20.08;;;;;;;7.58;100.00;102384.06;5009370;28;20030;-68
2023/04/08 06:58:26;;;;;;;22.00;19.08;;;;;;;7.57;100.00;102382.34;5007377;28;20447;-64
2023/04/08 07:00:55;;;;;;;21.02;18.92;;;;;;;7.56;100.00;102391.59;5008068;28;20530;-66
2023/04/08 07:03:20;;;;;;;22.08;19.73;;;;;;;7.54;100.00;102395.34;5006185;28;20041;-66
2023/04/08 07:05:46;;;;;;;20.95;18.85;;;;;;;7.53;100.00;102403.72;5005766;28;20588;-66
2023/04/08 07:08:11;;;;;;;21.30;19.00;;;;;;;7.56;100.00;102403.38;5005885;28;20041;-65
2023/04/08 07:10:36;;;;;;;20.67;18.52;;;;;;;7.60;100.00;102401.13;5008415;28;20081;-64
2023/04/08 07:13:02;;;;;;;20.73;18.63;;;;;;;7.59;100.00;102404.91;5009245;28;20022;-67
2023/04/08 07:15:28;;;;;;;20.50;18.40;;;;;;;7.57;100.00;102405.09;5008360;28;20451;-66
2023/04/08 07:17:55;;;;;;;19.98;17.98;;;;;;;7.60;100.00;102412.06;5007844;28;20373;-67
2023/04/08 07:20:21;;;;;;;20.23;17.73;;;;;;;7.85;100.00;102421.09;5007771;28;20076;-66
2023/04/08 07:22:47;;;;;;;19.50;17.50;;;;;;;7.74;100.00;102422.31;5007362;28;20030;-66
2023/04/08 07:25:12;;;;;;;19.95;17.95;;;;;;;7.51;100.00;102417.56;5005439;28;20087;-65
2023/04/08 07:27:37;;;;;;;21.27;19.08;;;;;;;7.57;100.00;102423.38;5005619;28;20022;-66
2023/04/08 07:30:03;;;;;;;20.80;18.80;;;;;;;7.57;100.00;102423.38;5008647;28;20033;-66
2023/04/08 07:32:28;;;;;;;20.50;18.35;;;;;;;7.57;100.00;102424.22;5007370;28;20065;-67
2023/04/08 07:34:54;;;;;;;20.55;18.45;;;;;;;7.63;100.00;102426.25;5007539;28;20397;-66
2023/04/08 07:37:19;;;;;;;20.63;18.52;;;;;;;7.62;100.00;102429.19;5006814;28;20723;-65
2023/04/08 07:39:45;;;;;;;20.13;18.02;;;;;;;7.61;100.00;102433.78;5007055;28;20042;-66
2023/04/08 07:42:10;;;;;;;20.50;18.40;;;;;;;7.58;100.00;102436.84;5006869;28;20018;-64
2023/04/08 07:44:37;;;;;;;20.00;18.00;;;;;;;7.62;100.00;102440.13;5006357;28;20723;-66
2023/04/08 07:47:02;;;;;;;19.77;17.77;;;;;;;7.61;100.00;102436.53;5007093;28;20029;-67
2023/04/08 07:49:27;;;;;;;19.67;17.67;;;;;;;7.71;100.00;102436.34;5006443;28;20037;-66
2023/04/08 07:51:53;;;;;;;19.48;17.48;;;;;;;7.76;100.00;102442.16;5006034;28;20026;-67
2023/04/08 07:54:18;;;;;;;20.33;18.33;;;;;;;7.83;100.00;102439.56;5003828;28;20032;-64
2023/04/08 07:56:43;;;;;;;21.60;19.13;;;;;;;7.79;100.00;102439.91;5006412;28;20049;-66
2023/04/08 07:59:12;;;;;;;20.15;17.98;;;;;;;7.79;100.00;102453.59;5006228;28;20036;-65
2023/04/08 08:01:38;;;;;;;20.15;18.25;;;;;;;7.84;100.00;102450.31;5005675;28;20025;-66
2023/04/08 08:04:03;;;;;;;20.75;18.45;;;;;;;7.85;100.00;102449.28;5006597;28;20381;-65
2023/04/08 08:06:31;;;;;;;20.30;18.20;;;;;;;7.84;100.00;102454.94;5005383;28;20175;-67
2023/04/08 08:08:56;;;;;;;19.55;17.35;;;;;;;7.82;100.00;102448.81;5005565;28;20144;-66
2023/04/08 08:11:22;;;;;;;19.75;17.73;;;;;;;7.80;100.00;102454.44;5006119;28;20722;-66
2023/04/08 08:13:47;;;;;;;19.33;17.42;;;;;;;7.82;100.00;102457.03;5006794;28;20033;-63
2023/04/08 08:16:12;;;;;;;18.98;17.17;;;;;;;7.85;100.00;102462.97;5005638;28;20025;-66
2023/04/08 08:18:39;;;;;;;18.95;17.13;;;;;;;7.91;100.00;102459.56;4988706;28;20604;-66
2023/04/08 08:21:04;;;;;;;19.52;17.73;;;;;;;7.95;100.00;102465.53;5006685;28;20037;-66
2023/04/08 08:23:30;;;;;;;18.58;16.85;;;;;;;8.00;100.00;102465.84;5004244;28;20029;-66
2023/04/08 08:26:05;;;;;;;17.70;16.10;;;;;;;8.12;100.00;102460.88;5006581;28;20037;-66
2023/04/08 08:28:30;;;;;;;18.08;16.42;;;;;;;8.20;100.00;102467.19;5005466;28;20108;-66
2023/04/08 08:30:56;;;;;;;18.48;16.80;;;;;;;8.19;100.00;102462.75;5006417;28;20832;-66
2023/04/08 08:33:21;;;;;;;17.73;16.13;;;;;;;8.23;100.00;102466.00;5005850;28;20129;-66
2023/04/08 08:35:46;;;;;;;17.38;15.82;;;;;;;8.25;100.00;102467.50;5006323;28;20580;-66
2023/04/08 08:38:12;;;;;;;17.55;15.98;;;;;;;8.28;100.00;102472.63;5005371;28;20021;-66
2023/04/08 08:40:38;;;;;;;18.38;16.77;;;;;;;8.32;100.00;102476.75;4970059;28;1059795;-65
2023/04/08 08:43:03;;;;;;;18.25;16.55;;;;;;;8.31;100.00;102477.78;5005563;28;20034;-64
2023/04/08 08:45:29;;;;;;;18.35;16.75;;;;;;;8.37;100.00;102484.47;5006134;28;20038;-64
2023/04/08 08:47:55;;;;;;;17.30;15.70;;;;;;;8.42;100.00;102482.03;5006707;28;20026;-64
2023/04/08 08:50:20;;;;;;;17.13;15.57;;;;;;;8.39;100.00;102489.75;5006783;28;20052;-64
2023/04/08 08:52:52;;;;;;;16.88;15.38;;;;;;;8.41;100.00;102484.94;5005379;28;20489;-64
2023/04/08 08:55:19;;;;;;;17.38;15.77;;;;;;;8.42;100.00;102492.16;5005371;28;20447;-64
2023/04/08 08:57:45;;;;;;;16.80;15.35;;;;;;;8.37;100.00;102494.56;5005624;28;20077;-64
2023/04/08 09:00:11;;;;;;;16.75;15.15;;;;;;;8.35;100.00;102499.31;5007289;28;20069;-64
2023/04/08 09:02:36;;;;;;;15.93;14.52;;;;;;;8.31;100.00;102499.69;5007136;28;20116;-64
2023/04/08 09:05:03;;;;;;;16.40;15.00;;;;;;;8.32;100.00;102495.06;5011361;28;20481;-64
2023/04/08 09:07:30;;;;;;;16.95;15.45;;;;;;;8.34;100.00;102501.19;5007803;28;20231;-64
2023/04/08 09:09:58;;;;;;;16.83;15.32;;;;;;;8.39;100.00;102503.44;5009746;28;20113;-64
2023/04/08 09:12:26;;;;;;;17.10;15.65;;;;;;;8.52;100.00;102509.22;5010432;28;20072;-64
2023/04/08 09:15:06;;;;;;;17.65;16.15;;;;;;;8.65;100.00;102514.97;5010919;28;20041;-64
2023/04/08 09:17:36;;;;;;;16.77;15.38;;;;;;;8.73;100.00;102517.69;5009473;28;20037;-64
2023/04/08 09:20:10;;;;;;;17.27;15.88;;;;;;;8.80;100.00;102510.47;5011020;28;20030;-64
2023/04/08 09:22:55;;;;;;;16.73;15.23;;;;;;;8.96;100.00;102514.16;5009153;28;20083;-64
2023/04/08 09:25:25;;;;;;;16.05;14.63;;;;;;;8.99;100.00;102519.28;5010139;28;20034;-64
2023/04/08 09:27:51;;;;;;;16.27;14.88;;;;;;;9.12;100.00;102508.56;5010254;28;20041;-62
2023/04/08 09:30:17;;;;;;;16.83;15.43;;;;;;;9.21;100.00;102510.22;5009272;28;20060;-62
2023/04/08 09:32:47;;;;;;;15.90;14.55;;;;;;;9.30;100.00;102519.28;5009190;28;20025;-62
2023/04/08 09:35:12;;;;;;;15.52;14.18;;;;;;;9.23;100.00;102516.41;5009782;28;20457;-62
2023/04/08 09:37:38;;;;;;;15.30;13.90;;;;;;;9.21;100.00;102514.88;5008714;28;20068;-62
2023/04/08 09:40:04;;;;;;;15.63;14.32;;;;;;;9.16;100.00;102520.88;5010039;28;20073;-62
2023/04/08 09:42:30;;;;;;;16.63;15.23;;;;;;;9.13;100.00;102518.53;5009367;28;20034;-62
2023/04/08 09:44:57;;;;;;;16.90;15.50;;;;;;;9.20;100.00;102522.25;5009907;28;20026;-62
2023/04/08 09:47:27;;;;;;;15.77;14.48;;;;;;;9.27;100.00;102531.44;5009354;28;20087;-62
2023/04/08 09:49:57;;;;;;;16.55;15.25;;;;;;;9.35;100.00;102523.16;5009137;28;20064;-62
2023/04/08 09:52:33;;;;;;;15.65;14.35;;;;;;;9.56;100.00;102517.03;5008655;28;20048;-62
2023/04/08 09:55:03;;;;;;;16.45;15.15;;;;;;;9.54;100.00;102530.06;5010258;28;20075;-62
2023/04/08 09:57:50;;;;;;;15.45;14.15;;;;;;;9.79;100.00;102538.97;5009407;28;20087;-64
2023/04/08 10:00:16;;;;;;;15.75;14.45;;;;;;;9.59;100.00;102535.00;5008217;28;20369;-63
2023/04/08 10:03:10;;;;;;;16.52;15.13;;;;;;;9.52;100.00;102545.00;5007687;28;20049;-63
2023/04/08 10:05:40;;;;;;;14.25;12.95;;;;;;;9.66;100.00;102532.38;4962654;28;20050;-63
2023/04/08 10:08:06;;;;;;;14.90;13.60;;;;;;;9.59;100.00;102535.88;5012318;28;20087;-63
2023/04/08 10:10:35;;;;;;;15.23;13.93;;;;;;;9.74;100.00;102532.34;5013555;28;20030;-63
2023/04/08 10:13:02;;;;;;;16.35;14.95;;;;;;;9.80;100.00;102537.94;5007505;28;20034;-63
2023/04/08 10:15:32;;;;;;;16.08;14.68;;;;;;;9.92;100.00;102526.50;5008813;28;20034;-63
2023/04/08 10:18:03;;;;;;;16.02;14.63;;;;;;;10.19;100.00;102525.91;5009206;28;20525;-63
2023/04/08 10:20:37;;;;;;;16.42;15.02;;;;;;;10.55;100.00;102531.56;5009124;28;20484;-63
2023/04/08 10:23:12;;;;;;;14.98;13.60;;;;;;;10.72;100.00;102532.22;5007811;28;20042;-63
2023/04/08 10:25:38;;;;;;;15.30;14.00;;;;;;;10.98;100.00;102528.09;5009115;28;20053;-63
2023/04/08 10:28:12;;;;;;;15.68;14.38;;;;;;;11.05;100.00;102529.91;5009936;28;20026;-63
2023/04/08 10:30:45;;;;;;;15.55;14.25;;;;;;;11.01;100.00;102522.22;5009600;28;20065;-63
2023/04/08 10:33:13;;;;;;;16.17;14.88;;;;;;;10.94;100.00;102522.13;5008769;28;20030;-63
2023/04/08 10:35:47;;;;;;;15.93;14.43;;;;;;;10.99;100.00;102521.56;5007626;28;20100;-63
2023/04/08 10:38:13;;;;;;;15.18;13.88;;;;;;;11.51;95.91;102523.22;5006506;28;20030;-63
2023/04/08 10:40:41;;;;;;;14.30;13.05;;;;;;;14.10;86.77;102511.59;5009020;28;20081;-63
2023/04/08 10:43:07;;;;;;;13.65;12.55;;;;;;;15.32;75.95;102494.19;5009354;28;20026;-63
2023/04/08 10:45:33;;;;;;;14.05;12.85;;;;;;;15.47;78.05;102493.91;5009156;28;20061;-63
2023/04/08 10:48:18;;;;;;;12.82;11.73;;;;;;;16.25;77.15;102486.00;5007696;28;20068;-63
2023/04/08 10:51:04;;;;;;;13.50;12.38;;;;;;;17.93;68.94;102484.44;5009018;28;20022;-63
2023/04/08 10:53:40;;;;;;;12.32;11.23;;;;;;;19.66;64.48;102493.75;5006853;28;20045;-63
2023/04/08 10:56:15;;;;;;;11.75;10.65;;;;;;;20.85;54.34;102488.91;5008956;28;20045;-63
2023/04/08 10:58:51;;;;;;;11.98;10.98;;;;;;;22.08;53.18;102485.41;5008391;28;20029;-63
2023/04/08 11:01:18;;;;;;;11.85;10.85;;;;;;;22.06;50.68;102487.66;5007797;28;20063;-62
2023/04/08 11:03:44;;;;;;;11.73;10.73;;;;;;;21.14;51.34;102479.19;5004735;28;20045;-63
2023/04/08 11:06:10;;;;;;;12.15;11.15;;;;;;;20.63;55.00;102481.38;5008086;28;20053;-63
2023/04/08 11:08:35;;;;;;;12.50;11.40;;;;;;;21.02;51.74;102483.22;5007283;28;20044;-62